createdAt,value
2023-03-13T00:00:10.774Z,995.10
2023-03-13T00:01:10.778Z,994.95
2023-03-13T00:02:10.799Z,994.90
2023-03-13T00:03:10.730Z,994.94
2023-03-13T00:04:10.722Z,994.91
2023-03-13T00:05:10.729Z,994.88
2023-03-13T00:06:10.721Z,994.90
2023-03-13T00:07:10.700Z,994.88
2023-03-13T00:08:10.666Z,994.92
2023-03-13T00:09:10.663Z,994.92
2023-03-13T00:10:10.637Z,994.87
2023-03-13T00:11:10.639Z,994.84
2023-03-13T00:12:10.672Z,994.81
2023-03-13T00:13:10.600Z,994.81
2023-03-13T00:14:10.592Z,994.79
2023-03-13T00:15:10.578Z,994.76
2023-03-13T00:16:10.589Z,994.71
2023-03-13T00:17:10.571Z,994.70
2023-03-13T00:18:10.540Z,994.71
2023-03-13T00:19:10.529Z,994.71
2023-03-13T00:20:10.517Z,994.63
2023-03-13T00:21:10.503Z,994.66
2023-03-13T00:22:10.519Z,994.60
2023-03-13T00:23:10.476Z,994.65
2023-03-13T00:24:10.468Z,994.63
2023-03-13T00:25:10.455Z,994.58
2023-03-13T00:26:10.454Z,994.62
2023-03-13T00:27:10.438Z,994.64
2023-03-13T00:28:10.403Z,994.61
2023-03-13T00:29:10.395Z,994.63
2023-03-13T00:30:10.381Z,994.69
2023-03-13T00:31:10.419Z,994.59
2023-03-13T00:32:10.417Z,994.57
2023-03-13T00:33:10.341Z,994.60
2023-03-13T00:34:10.323Z,994.57
2023-03-13T00:35:10.321Z,994.55
2023-03-13T00:36:10.302Z,994.58
2023-03-13T00:37:10.311Z,994.55
2023-03-13T00:38:10.296Z,994.60
2023-03-13T00:39:10.271Z,994.55
2023-03-13T00:40:10.248Z,994.54
2023-03-13T00:41:10.240Z,994.49
2023-03-13T00:42:10.238Z,994.53
2023-03-13T00:43:10.207Z,994.50
2023-03-13T00:44:10.191Z,994.52
2023-03-13T00:45:10.185Z,994.36
2023-03-13T00:46:10.261Z,994.34
2023-03-13T00:47:10.174Z,994.34
2023-03-13T00:48:10.147Z,994.35
2023-03-13T00:49:10.139Z,994.39
2023-03-13T00:50:10.117Z,994.34
2023-03-13T00:51:10.105Z,994.26
2023-03-13T00:52:10.104Z,994.29
2023-03-13T00:53:10.081Z,994.30
2023-03-13T00:54:10.100Z,994.25
2023-03-13T00:55:10.068Z,994.22
2023-03-13T00:56:10.039Z,994.24
2023-03-13T00:57:10.050Z,994.22
2023-03-13T00:58:10.017Z,994.15
2023-03-13T00:59:09.998Z,994.25
2023-03-13T01:00:09.986Z,994.11
2023-03-13T01:01:09.979Z,994.13
2023-03-13T01:02:10.159Z,994.12
2023-03-13T01:03:10.062Z,994.03
2023-03-13T01:04:09.939Z,994.07
2023-03-13T01:05:09.929Z,994.03
2023-03-13T01:06:09.911Z,994.09
2023-03-13T01:07:09.913Z,994.07
2023-03-13T01:08:09.885Z,994.08
2023-03-13T01:09:09.882Z,994.03
2023-03-13T01:10:09.883Z,994.01
2023-03-13T01:11:09.856Z,994.02
2023-03-13T01:12:09.861Z,993.93
2023-03-13T01:13:09.822Z,993.94
2023-03-13T01:14:09.813Z,993.99
2023-03-13T01:15:09.799Z,993.94
2023-03-13T01:16:09.909Z,993.91
2023-03-13T01:17:09.791Z,993.93
2023-03-13T01:18:09.761Z,993.85
2023-03-13T01:19:12.933Z,993.85
2023-03-13T01:20:09.744Z,993.76
2023-03-13T01:21:09.727Z,993.77
2023-03-13T01:22:09.754Z,993.77
2023-03-13T01:23:09.697Z,993.74
2023-03-13T01:24:09.682Z,993.71
2023-03-13T01:25:09.675Z,993.78
2023-03-13T01:26:09.686Z,993.75
2023-03-13T01:27:09.652Z,993.65
2023-03-13T01:28:09.650Z,993.66
2023-03-13T01:29:09.617Z,993.65
2023-03-13T01:30:09.602Z,993.66
2023-03-13T01:31:09.800Z,993.63
2023-03-13T01:32:09.579Z,993.64
2023-03-13T01:33:09.584Z,993.60
2023-03-13T01:34:09.551Z,993.66
2023-03-13T01:35:09.539Z,993.65
2023-03-13T01:36:09.524Z,993.66
2023-03-13T01:37:09.517Z,993.65
2023-03-13T01:38:09.515Z,993.62
2023-03-13T01:39:09.506Z,993.62
2023-03-13T01:40:09.472Z,993.51
2023-03-13T01:41:09.484Z,993.55
2023-03-13T01:42:09.471Z,993.48
2023-03-13T01:43:12.012Z,993.52
2023-03-13T01:44:09.426Z,993.49
2023-03-13T01:45:09.406Z,993.44
2023-03-13T01:46:09.449Z,993.41
2023-03-13T01:47:09.385Z,993.47
2023-03-13T01:48:09.386Z,993.29
2023-03-13T01:49:09.355Z,993.36
2023-03-13T01:50:09.346Z,993.35
2023-03-13T01:51:09.345Z,993.39
2023-03-13T01:52:09.318Z,993.30
2023-03-13T01:53:09.320Z,993.29
2023-03-13T01:54:09.289Z,993.27
2023-03-13T01:55:09.298Z,993.33
2023-03-13T01:56:09.266Z,993.24
2023-03-13T01:57:09.260Z,993.23
2023-03-13T01:58:09.276Z,993.25
2023-03-13T01:59:09.229Z,993.24
2023-03-13T02:00:09.210Z,993.21
2023-03-13T02:01:09.204Z,993.15
2023-03-13T02:02:09.221Z,993.14
2023-03-13T02:03:09.336Z,993.12
2023-03-13T02:04:09.173Z,993.05
2023-03-13T02:05:09.178Z,993.05
2023-03-13T02:06:09.142Z,993.00
2023-03-13T02:07:09.125Z,992.92
2023-03-13T02:08:09.124Z,992.97
2023-03-13T02:09:09.100Z,992.99
2023-03-13T02:10:09.117Z,992.95
2023-03-13T02:11:09.079Z,992.85
2023-03-13T02:12:09.060Z,992.92
2023-03-13T02:13:09.064Z,992.95
2023-03-13T02:14:09.061Z,992.91
2023-03-13T02:15:09.021Z,992.93
2023-03-13T02:16:09.052Z,992.85
2023-03-13T02:17:08.994Z,992.81
2023-03-13T02:18:08.996Z,992.81
2023-03-13T02:19:08.966Z,992.80
2023-03-13T02:20:08.956Z,992.72
2023-03-13T02:21:08.943Z,992.78
2023-03-13T02:22:08.937Z,992.73
2023-03-13T02:23:08.932Z,992.70
2023-03-13T02:24:08.903Z,992.67
2023-03-13T02:25:08.893Z,992.65
2023-03-13T02:26:08.880Z,992.67
2023-03-13T02:27:08.884Z,992.70
2023-03-13T02:28:08.871Z,992.70
2023-03-13T02:29:08.840Z,992.62
2023-03-13T02:30:08.844Z,992.66
2023-03-13T02:31:08.870Z,992.70
2023-03-13T02:32:08.807Z,992.66
2023-03-13T02:33:08.805Z,992.69
2023-03-13T02:34:08.772Z,992.68
2023-03-13T02:35:08.765Z,992.61
2023-03-13T02:36:08.792Z,992.60
2023-03-13T02:37:08.739Z,992.58
2023-03-13T02:38:08.735Z,992.56
2023-03-13T02:39:08.707Z,992.57
2023-03-13T02:40:08.698Z,992.52
2023-03-13T02:41:08.685Z,992.54
2023-03-13T02:42:08.676Z,992.50
2023-03-13T02:43:08.676Z,992.49
2023-03-13T02:44:08.648Z,992.49
2023-03-13T02:45:08.635Z,992.47
2023-03-13T02:46:08.648Z,992.52
2023-03-13T02:47:08.617Z,992.44
2023-03-13T02:48:08.612Z,992.44
2023-03-13T02:49:08.587Z,992.45
2023-03-13T02:50:08.587Z,992.37
2023-03-13T02:51:08.562Z,992.40
2023-03-13T02:52:08.549Z,992.38
2023-03-13T02:53:08.555Z,992.40
2023-03-13T02:54:08.526Z,992.38
2023-03-13T02:55:08.512Z,992.29
2023-03-13T02:56:08.516Z,992.36
2023-03-13T02:57:08.490Z,992.28
2023-03-13T02:58:08.493Z,992.20
2023-03-13T02:59:08.462Z,992.19
2023-03-13T03:00:08.452Z,992.11
2023-03-13T03:01:08.484Z,992.17
2023-03-13T03:02:08.468Z,992.10
2023-03-13T03:03:08.413Z,992.14
2023-03-13T03:04:08.453Z,992.07
2023-03-13T03:05:08.383Z,992.10
2023-03-13T03:06:08.383Z,992.12
2023-03-13T03:07:08.366Z,992.08
2023-03-13T03:08:08.348Z,992.10
2023-03-13T03:09:08.352Z,992.14
2023-03-13T03:10:08.317Z,992.12
2023-03-13T03:11:08.311Z,992.09
2023-03-13T03:12:08.294Z,992.10
2023-03-13T03:13:08.280Z,991.99
2023-03-13T03:14:08.319Z,992.00
2023-03-13T03:15:08.260Z,991.91
2023-03-13T03:16:08.277Z,992.01
2023-03-13T03:17:08.231Z,991.96
2023-03-13T03:18:08.238Z,991.97
2023-03-13T03:19:08.225Z,991.86
2023-03-13T03:20:08.188Z,991.92
2023-03-13T03:21:08.197Z,991.85
2023-03-13T03:22:08.157Z,991.89
2023-03-13T03:23:08.150Z,991.91
2023-03-13T03:24:08.148Z,991.89
2023-03-13T03:25:08.117Z,991.92
2023-03-13T03:26:08.112Z,991.79
2023-03-13T03:27:08.097Z,991.78
2023-03-13T03:28:08.082Z,991.81
2023-03-13T03:29:08.092Z,991.76
2023-03-13T03:30:08.070Z,991.79
2023-03-13T03:31:08.073Z,991.72
2023-03-13T03:32:08.033Z,991.64
2023-03-13T03:33:08.021Z,991.69
2023-03-13T03:34:08.035Z,991.67
2023-03-13T03:35:07.995Z,991.67
2023-03-13T03:36:08.067Z,991.64
2023-03-13T03:37:07.962Z,991.54
2023-03-13T03:38:07.953Z,991.59
2023-03-13T03:39:07.970Z,991.65
2023-03-13T03:40:07.935Z,991.65
2023-03-13T03:41:07.950Z,991.65
2023-03-13T03:42:07.889Z,991.67
2023-03-13T03:43:07.893Z,991.64
2023-03-13T03:44:07.882Z,991.62
2023-03-13T03:45:07.866Z,991.67
2023-03-13T03:46:07.908Z,991.61
2023-03-13T03:47:07.917Z,991.54
2023-03-13T03:48:07.813Z,991.66
2023-03-13T03:49:07.811Z,991.61
2023-03-13T03:50:07.912Z,991.63
2023-03-13T03:51:07.812Z,991.61
2023-03-13T03:52:07.776Z,991.66
2023-03-13T03:53:07.746Z,991.65
2023-03-13T03:54:07.756Z,991.63
2023-03-13T03:55:07.722Z,991.67
2023-03-13T03:56:07.717Z,991.66
2023-03-13T03:57:07.703Z,991.65
2023-03-13T03:58:07.689Z,991.67
2023-03-13T03:59:07.701Z,991.69
2023-03-13T04:00:07.667Z,991.63
2023-03-13T04:01:07.643Z,991.73
2023-03-13T04:02:07.653Z,991.68
2023-03-13T04:03:07.650Z,991.65
2023-03-13T04:04:07.632Z,991.57
2023-03-13T04:05:07.597Z,991.60
2023-03-13T04:06:07.609Z,991.67
2023-03-13T04:07:07.578Z,991.60
2023-03-13T04:08:07.557Z,991.66
2023-03-13T04:09:07.574Z,991.64
2023-03-13T04:10:07.533Z,991.53
2023-03-13T04:11:07.516Z,991.66
2023-03-13T04:12:07.503Z,991.56
2023-03-13T04:13:07.492Z,991.57
2023-03-13T04:14:07.506Z,991.54
2023-03-13T04:15:07.467Z,991.57
2023-03-13T04:16:07.459Z,991.51
2023-03-13T04:17:07.563Z,991.51
2023-03-13T04:18:07.431Z,991.51
2023-03-13T04:19:07.454Z,991.50
2023-03-13T04:20:07.402Z,991.41
2023-03-13T04:21:07.396Z,991.45
2023-03-13T04:22:07.407Z,991.48
2023-03-13T04:23:07.366Z,991.42
2023-03-13T04:24:07.366Z,991.49
2023-03-13T04:25:07.348Z,991.50
2023-03-13T04:26:07.325Z,991.49
2023-03-13T04:27:07.310Z,991.49
2023-03-13T04:28:07.298Z,991.49
2023-03-13T04:29:07.284Z,991.49
2023-03-13T04:30:07.305Z,991.43
2023-03-13T04:31:07.303Z,991.50
2023-03-13T04:32:07.244Z,991.50
2023-03-13T04:33:07.243Z,991.43
2023-03-13T04:34:07.219Z,991.46
2023-03-13T04:35:07.265Z,991.46
2023-03-13T04:36:07.320Z,991.42
2023-03-13T04:37:07.186Z,991.34
2023-03-13T04:38:07.198Z,991.31
2023-03-13T04:39:07.160Z,991.26
2023-03-13T04:40:07.156Z,991.28
2023-03-13T04:41:07.129Z,991.20
2023-03-13T04:42:07.117Z,991.23
2023-03-13T04:43:07.103Z,991.24
2023-03-13T04:44:07.092Z,991.25
2023-03-13T04:45:07.086Z,991.26
2023-03-13T04:46:07.131Z,991.24
2023-03-13T04:47:07.053Z,991.30
2023-03-13T04:48:07.034Z,991.27
2023-03-13T04:49:08.818Z,991.23
2023-03-13T04:50:07.036Z,991.18
2023-03-13T04:51:07.001Z,991.22
2023-03-13T04:52:06.983Z,991.18
2023-03-13T04:53:06.980Z,991.22
2023-03-13T04:54:06.981Z,991.21
2023-03-13T04:55:06.986Z,991.22
2023-03-13T04:56:06.929Z,991.29
2023-03-13T04:57:06.916Z,991.17
2023-03-13T04:58:06.921Z,991.20
2023-03-13T04:59:06.895Z,991.16
2023-03-13T05:00:06.905Z,991.10
2023-03-13T05:01:07.000Z,991.03
2023-03-13T05:02:06.868Z,991.05
2023-03-13T05:03:06.843Z,991.05
2023-03-13T05:04:06.822Z,991.06
2023-03-13T05:05:06.901Z,991.05
2023-03-13T05:06:06.803Z,991.02
2023-03-13T05:07:06.788Z,991.00
2023-03-13T05:08:06.776Z,990.99
2023-03-13T05:09:06.766Z,991.00
2023-03-13T05:10:06.799Z,990.98
2023-03-13T05:11:06.747Z,990.94
2023-03-13T05:12:06.727Z,990.91
2023-03-13T05:13:06.708Z,990.85
2023-03-13T05:14:06.704Z,990.92
2023-03-13T05:15:06.704Z,990.87
2023-03-13T05:16:06.729Z,990.82
2023-03-13T05:17:06.682Z,990.82
2023-03-13T05:18:06.643Z,990.83
2023-03-13T05:19:06.635Z,990.90
2023-03-13T05:20:06.636Z,990.81
2023-03-13T05:21:06.623Z,990.86
2023-03-13T05:22:06.594Z,990.83
2023-03-13T05:23:06.581Z,990.71
2023-03-13T05:24:06.571Z,990.77
2023-03-13T05:25:06.566Z,990.71
2023-03-13T05:26:06.574Z,990.68
2023-03-13T05:27:06.538Z,990.72
2023-03-13T05:28:06.519Z,990.77
2023-03-13T05:29:06.504Z,990.73
2023-03-13T05:30:06.487Z,990.68
2023-03-13T05:31:06.559Z,990.69
2023-03-13T05:32:06.471Z,990.75
2023-03-13T05:33:06.449Z,990.64
2023-03-13T05:34:06.444Z,990.64
2023-03-13T05:35:06.417Z,990.57
2023-03-13T05:36:06.425Z,990.55
2023-03-13T05:37:06.424Z,990.52
2023-03-13T05:38:06.382Z,990.54
2023-03-13T05:39:06.371Z,990.44
2023-03-13T05:40:06.373Z,990.45
2023-03-13T05:41:06.365Z,990.52
2023-03-13T05:42:06.357Z,990.47
2023-03-13T05:43:06.317Z,990.43
2023-03-13T05:44:06.308Z,990.46
2023-03-13T05:45:06.300Z,990.41
2023-03-13T05:46:06.356Z,990.45
2023-03-13T05:47:06.269Z,990.48
2023-03-13T05:48:06.255Z,990.50
2023-03-13T05:49:06.249Z,990.58
2023-03-13T05:50:06.284Z,990.62
2023-03-13T05:51:06.234Z,990.61
2023-03-13T05:52:06.205Z,990.55
2023-03-13T05:53:06.187Z,990.60
2023-03-13T05:54:06.203Z,990.57
2023-03-13T05:55:06.157Z,990.34
2023-03-13T05:56:06.162Z,990.44
2023-03-13T05:57:06.138Z,990.42
2023-03-13T05:58:06.146Z,990.39
2023-03-13T05:59:06.106Z,990.28
2023-03-13T06:00:06.109Z,990.44
2023-03-13T06:01:06.094Z,990.43
2023-03-13T06:02:06.061Z,990.50
2023-03-13T06:03:06.052Z,990.47
2023-03-13T06:04:06.273Z,990.52
2023-03-13T06:05:06.138Z,990.52
2023-03-13T06:06:06.021Z,990.54
2023-03-13T06:07:05.997Z,990.59
2023-03-13T06:08:05.994Z,990.60
2023-03-13T06:09:05.987Z,990.69
2023-03-13T06:10:05.958Z,990.63
2023-03-13T06:11:05.965Z,990.57
2023-03-13T06:12:05.931Z,990.58
2023-03-13T06:13:19.092Z,990.54
2023-03-13T06:14:06.931Z,990.47
2023-03-13T06:15:05.890Z,990.53
2023-03-13T06:16:05.985Z,990.43
2023-03-13T06:17:05.948Z,990.42
2023-03-13T06:18:05.851Z,990.39
2023-03-13T06:19:05.833Z,990.41
2023-03-13T06:20:05.832Z,990.31
2023-03-13T06:21:05.832Z,990.33
2023-03-13T06:22:05.803Z,990.25
2023-03-13T06:23:05.792Z,990.09
2023-03-13T06:24:05.779Z,990.16
2023-03-13T06:25:05.765Z,990.25
2023-03-13T06:26:05.763Z,990.17
2023-03-13T06:27:05.728Z,990.26
2023-03-13T06:28:05.717Z,990.29
2023-03-13T06:29:05.714Z,990.29
2023-03-13T06:30:05.715Z,990.37
2023-03-13T06:31:05.780Z,990.37
2023-03-13T06:32:05.819Z,990.37
2023-03-13T06:33:05.842Z,990.37
2023-03-13T06:34:05.643Z,990.26
2023-03-13T06:35:05.644Z,990.18
2023-03-13T06:36:05.695Z,990.18
2023-03-13T06:37:05.612Z,990.18
2023-03-13T06:38:05.606Z,990.22
2023-03-13T06:39:05.592Z,990.19
2023-03-13T06:40:05.580Z,990.22
2023-03-13T06:41:05.568Z,990.27
2023-03-13T06:42:05.540Z,990.24
2023-03-13T06:43:05.530Z,990.22
2023-03-13T06:44:05.512Z,990.28
2023-03-13T06:45:05.496Z,990.27
2023-03-13T06:46:05.530Z,990.29
2023-03-13T06:47:05.507Z,990.31
2023-03-13T06:48:05.473Z,990.26
2023-03-13T06:49:05.463Z,990.17
2023-03-13T06:50:05.436Z,990.22
2023-03-13T06:51:05.440Z,990.28
2023-03-13T06:52:05.410Z,990.30
2023-03-13T06:53:05.395Z,990.35
2023-03-13T06:54:05.384Z,990.28
2023-03-13T06:55:05.383Z,990.28
2023-03-13T06:56:05.364Z,990.19
2023-03-13T06:57:05.371Z,990.18
2023-03-13T06:58:05.338Z,990.12
2023-03-13T06:59:05.359Z,990.18
2023-03-13T07:00:05.332Z,990.19
2023-03-13T07:01:05.449Z,990.15
2023-03-13T07:02:05.324Z,990.18
2023-03-13T07:03:05.279Z,990.24
2023-03-13T07:04:05.302Z,990.24
2023-03-13T07:05:05.245Z,990.19
2023-03-13T07:06:05.234Z,990.24
2023-03-13T07:07:05.233Z,990.25
2023-03-13T07:08:05.218Z,990.23
2023-03-13T07:09:05.220Z,990.30
2023-03-13T07:10:05.182Z,990.19
2023-03-13T07:11:05.167Z,990.22
2023-03-13T07:12:05.171Z,990.17
2023-03-13T07:13:05.147Z,990.16
2023-03-13T07:14:15.940Z,990.13
2023-03-13T07:15:05.120Z,990.11
2023-03-13T07:16:05.165Z,990.06
2023-03-13T07:17:05.174Z,990.08
2023-03-13T07:18:05.118Z,990.08
2023-03-13T07:19:05.070Z,990.12
2023-03-13T07:20:05.129Z,990.11
2023-03-13T07:21:05.084Z,990.04
2023-03-13T07:22:05.047Z,989.99
2023-03-13T07:23:05.059Z,989.99
2023-03-13T07:24:05.015Z,990.06
2023-03-13T07:25:04.986Z,990.07
2023-03-13T07:26:04.977Z,990.17
2023-03-13T07:27:07.935Z,990.21
2023-03-13T07:28:04.955Z,990.23
2023-03-13T07:29:04.937Z,990.29
2023-03-13T07:30:04.965Z,990.31
2023-03-13T07:31:04.909Z,990.26
2023-03-13T07:32:05.065Z,990.31
2023-03-13T07:33:05.007Z,990.29
2023-03-13T07:34:04.908Z,990.29
2023-03-13T07:35:04.919Z,990.26
2023-03-13T07:36:04.875Z,990.20
2023-03-13T07:37:04.906Z,990.25
2023-03-13T07:38:04.832Z,990.31
2023-03-13T07:39:04.811Z,990.23
2023-03-13T07:40:04.879Z,990.27
2023-03-13T07:41:04.783Z,990.26
2023-03-13T07:42:04.789Z,990.27
2023-03-13T07:43:04.751Z,990.18
2023-03-13T07:44:04.759Z,990.20
2023-03-13T07:45:04.722Z,990.15
2023-03-13T07:46:04.868Z,990.23
2023-03-13T07:47:04.746Z,990.31
2023-03-13T07:48:04.683Z,990.30
2023-03-13T07:49:04.668Z,990.22
2023-03-13T07:50:04.835Z,990.26
2023-03-13T07:51:04.666Z,990.21
2023-03-13T07:52:04.671Z,990.26
2023-03-13T07:53:06.275Z,990.22
2023-03-13T07:54:04.608Z,990.18
2023-03-13T07:55:04.606Z,990.27
2023-03-13T07:56:04.582Z,990.19
2023-03-13T07:57:04.593Z,990.25
2023-03-13T07:58:04.564Z,990.20
2023-03-13T07:59:04.589Z,990.26
2023-03-13T08:00:04.548Z,990.18
2023-03-13T08:01:04.515Z,990.30
2023-03-13T08:02:04.609Z,990.26
2023-03-13T08:03:04.527Z,990.25
2023-03-13T08:04:04.470Z,990.32
2023-03-13T08:05:04.464Z,990.31
2023-03-13T08:06:04.576Z,990.35
2023-03-13T08:07:04.439Z,990.39
2023-03-13T08:08:04.444Z,990.38
2023-03-13T08:09:04.431Z,990.31
2023-03-13T08:10:04.396Z,990.44
2023-03-13T08:11:04.393Z,990.41
2023-03-13T08:12:04.365Z,990.45
2023-03-13T08:13:04.373Z,990.40
2023-03-13T08:14:04.335Z,990.49
2023-03-13T08:15:04.331Z,990.50
2023-03-13T08:16:04.327Z,990.47
2023-03-13T08:17:04.363Z,990.45
2023-03-13T08:18:04.348Z,990.40
2023-03-13T08:19:04.277Z,990.45
2023-03-13T08:20:04.260Z,990.38
2023-03-13T08:21:04.239Z,990.36
2023-03-13T08:22:04.254Z,990.32
2023-03-13T08:23:04.228Z,990.43
2023-03-13T08:24:04.208Z,990.37
2023-03-13T08:25:04.202Z,990.39
2023-03-13T08:26:04.184Z,990.38
2023-03-13T08:27:04.159Z,990.42
2023-03-13T08:28:04.161Z,990.41
2023-03-13T08:29:04.135Z,990.50
2023-03-13T08:30:04.123Z,990.45
2023-03-13T08:31:04.178Z,990.52
2023-03-13T08:32:04.114Z,990.37
2023-03-13T08:33:06.457Z,990.39
2023-03-13T08:34:04.068Z,990.29
2023-03-13T08:35:04.054Z,990.34
2023-03-13T08:36:04.071Z,990.36
2023-03-13T08:37:04.032Z,990.33
2023-03-13T08:38:04.058Z,990.35
2023-03-13T08:39:04.004Z,990.36
2023-03-13T08:40:03.982Z,990.32
2023-03-13T08:41:03.983Z,990.37
2023-03-13T08:42:03.960Z,990.35
2023-03-13T08:43:03.957Z,990.42
2023-03-13T08:44:03.930Z,990.42
2023-03-13T08:45:03.917Z,990.54
2023-03-13T08:46:03.948Z,990.44
2023-03-13T08:47:03.914Z,990.43
2023-03-13T08:48:03.929Z,990.57
2023-03-13T08:49:03.896Z,990.55
2023-03-13T08:50:03.882Z,990.51
2023-03-13T08:51:03.890Z,990.60
2023-03-13T08:52:03.835Z,990.46
2023-03-13T08:53:03.830Z,990.50
2023-03-13T08:54:03.828Z,990.39
2023-03-13T08:55:03.798Z,990.39
2023-03-13T08:56:03.797Z,990.32
2023-03-13T08:57:03.772Z,990.34
2023-03-13T08:58:03.772Z,990.35
2023-03-13T08:59:03.766Z,990.33
2023-03-13T09:00:03.725Z,990.21
2023-03-13T09:01:03.739Z,990.22
2023-03-13T09:02:03.729Z,990.28
2023-03-13T09:03:03.740Z,990.25
2023-03-13T09:04:04.754Z,990.30
2023-03-13T09:05:03.666Z,990.23
2023-03-13T09:06:03.659Z,990.21
2023-03-13T09:07:03.641Z,990.15
2023-03-13T09:08:03.646Z,990.14
2023-03-13T09:09:03.613Z,990.15
2023-03-13T09:10:03.649Z,990.14
2023-03-13T09:11:03.600Z,990.09
2023-03-13T09:12:03.571Z,990.07
2023-03-13T09:13:03.579Z,990.12
2023-03-13T09:14:03.575Z,990.23
2023-03-13T09:15:03.538Z,990.15
2023-03-13T09:16:03.600Z,990.03
2023-03-13T09:17:03.511Z,990.19
2023-03-13T09:18:04.136Z,990.18
2023-03-13T09:19:03.487Z,990.22
2023-03-13T09:20:03.486Z,990.25
2023-03-13T09:21:03.461Z,990.16
2023-03-13T09:22:03.479Z,990.17
2023-03-13T09:23:03.437Z,990.20
2023-03-13T09:24:03.434Z,990.17
2023-03-13T09:25:03.403Z,990.10
2023-03-13T09:26:03.410Z,990.09
2023-03-13T09:27:03.381Z,990.16
2023-03-13T09:28:03.369Z,990.10
2023-03-13T09:29:03.377Z,990.14
2023-03-13T09:30:03.346Z,990.21
2023-03-13T09:31:03.348Z,990.13
2023-03-13T09:32:03.317Z,990.10
2023-03-13T09:33:03.341Z,990.05
2023-03-13T09:34:03.307Z,990.13
2023-03-13T09:35:03.282Z,989.98
2023-03-13T09:36:03.346Z,989.97
2023-03-13T09:37:03.265Z,990.00
2023-03-13T09:38:03.228Z,990.00
2023-03-13T09:39:03.237Z,989.96
2023-03-13T09:40:03.209Z,989.98
2023-03-13T09:41:06.272Z,989.98
2023-03-13T09:42:03.243Z,989.91
2023-03-13T09:43:03.209Z,989.89
2023-03-13T09:44:03.177Z,989.89
2023-03-13T09:45:03.140Z,989.92
2023-03-13T09:46:03.154Z,989.92
2023-03-13T09:47:03.135Z,989.89
2023-03-13T09:48:03.104Z,989.89
2023-03-13T09:49:03.138Z,989.92
2023-03-13T09:50:03.102Z,989.90
2023-03-13T09:51:03.108Z,989.82
2023-03-13T09:52:03.049Z,989.85
2023-03-13T09:53:03.040Z,989.84
2023-03-13T09:54:03.042Z,989.83
2023-03-13T09:55:03.018Z,989.78
2023-03-13T09:56:02.996Z,989.72
2023-03-13T09:57:02.984Z,989.75
2023-03-13T09:58:02.997Z,989.71
2023-03-13T09:59:02.978Z,989.70
2023-03-13T10:00:02.956Z,989.65
2023-03-13T10:01:02.937Z,989.62
2023-03-13T10:02:03.092Z,989.66
2023-03-13T10:03:02.906Z,989.69
2023-03-13T10:04:02.905Z,989.63
2023-03-13T10:05:02.889Z,989.61
2023-03-13T10:06:02.877Z,989.52
2023-03-13T10:07:02.853Z,989.51
2023-03-13T10:08:02.848Z,989.59
2023-03-13T10:09:02.827Z,989.55
2023-03-13T10:10:02.822Z,989.57
2023-03-13T10:11:02.795Z,989.63
2023-03-13T10:12:02.784Z,989.68
2023-03-13T10:13:02.775Z,989.60
2023-03-13T10:14:02.793Z,989.60
2023-03-13T10:15:02.760Z,989.53
2023-03-13T10:16:02.803Z,989.61
2023-03-13T10:17:02.722Z,989.60
2023-03-13T10:18:02.720Z,989.68
2023-03-13T10:19:02.691Z,989.58
2023-03-13T10:20:02.695Z,989.58
2023-03-13T10:21:02.664Z,989.63
2023-03-13T10:22:02.651Z,989.63
2023-03-13T10:23:02.643Z,989.61
2023-03-13T10:24:02.625Z,989.62
2023-03-13T10:25:02.640Z,989.69
2023-03-13T10:26:02.599Z,989.70
2023-03-13T10:27:02.598Z,989.69
2023-03-13T10:28:02.571Z,989.70
2023-03-13T10:29:02.565Z,989.70
2023-03-13T10:30:02.585Z,989.68
2023-03-13T10:31:02.613Z,989.67
2023-03-13T10:32:02.522Z,989.58
2023-03-13T10:33:02.509Z,989.59
2023-03-13T10:34:02.503Z,989.55
2023-03-13T10:35:02.504Z,989.62
2023-03-13T10:36:02.519Z,989.65
2023-03-13T10:37:02.456Z,989.60
2023-03-13T10:38:02.440Z,989.59
2023-03-13T10:39:02.431Z,989.62
2023-03-13T10:40:02.438Z,989.61
2023-03-13T10:41:02.411Z,989.43
2023-03-13T10:42:02.391Z,989.43
2023-03-13T10:43:02.403Z,989.51
2023-03-13T10:44:02.393Z,989.58
2023-03-13T10:45:02.380Z,989.56
2023-03-13T10:46:02.371Z,989.60
2023-03-13T10:47:02.528Z,989.60
2023-03-13T10:48:02.321Z,989.46
2023-03-13T10:49:02.305Z,989.52
2023-03-13T10:50:02.310Z,989.45
2023-03-13T10:51:02.604Z,989.42
2023-03-13T10:52:02.273Z,989.50
2023-03-13T10:53:02.254Z,989.47
2023-03-13T10:54:02.253Z,989.48
2023-03-13T10:55:02.301Z,989.36
2023-03-13T10:56:02.220Z,989.38
2023-03-13T10:57:02.204Z,989.34
2023-03-13T10:58:02.195Z,989.41
2023-03-13T10:59:02.175Z,989.44
2023-03-13T11:00:04.152Z,989.47
2023-03-13T11:01:02.155Z,989.46
2023-03-13T11:02:02.161Z,989.44
2023-03-13T11:03:02.354Z,989.42
2023-03-13T11:04:02.198Z,989.39
2023-03-13T11:05:02.128Z,989.33
2023-03-13T11:06:02.111Z,989.30
2023-03-13T11:07:02.074Z,989.42
2023-03-13T11:08:02.126Z,989.33
2023-03-13T11:09:02.051Z,989.21
2023-03-13T11:10:02.078Z,989.23
2023-03-13T11:11:02.068Z,989.23
2023-03-13T11:12:02.031Z,989.25
2023-03-13T11:13:01.991Z,989.37
2023-03-13T11:14:01.978Z,989.28
2023-03-13T11:15:02.184Z,989.36
2023-03-13T11:16:01.987Z,989.22
2023-03-13T11:17:01.950Z,989.30
2023-03-13T11:18:02.048Z,989.17
2023-03-13T11:19:01.936Z,989.13
2023-03-13T11:20:01.933Z,989.13
2023-03-13T11:21:17.351Z,989.19
2023-03-13T11:22:01.937Z,989.20
2023-03-13T11:23:01.877Z,989.12
2023-03-13T11:24:01.854Z,988.94
2023-03-13T11:25:01.861Z,989.14
2023-03-13T11:26:01.834Z,989.09
2023-03-13T11:27:05.141Z,989.07
2023-03-13T11:28:01.801Z,989.08
2023-03-13T11:29:01.794Z,989.04
2023-03-13T11:30:01.887Z,989.04
2023-03-13T11:31:01.772Z,989.04
2023-03-13T11:32:01.845Z,989.07
2023-03-13T11:33:01.812Z,988.93
2023-03-13T11:34:01.755Z,988.92
2023-03-13T11:35:01.744Z,988.89
2023-03-13T11:36:01.758Z,988.93
2023-03-13T11:37:01.685Z,988.91
2023-03-13T11:38:01.667Z,988.90
2023-03-13T11:39:01.664Z,988.96
2023-03-13T11:40:01.676Z,988.84
2023-03-13T11:41:01.636Z,988.84
2023-03-13T11:42:01.699Z,988.90
2023-03-13T11:43:06.521Z,988.86
2023-03-13T11:44:01.605Z,988.75
2023-03-13T11:45:01.590Z,988.70
2023-03-13T11:46:01.771Z,988.67
2023-03-13T11:47:01.710Z,988.82
2023-03-13T11:48:01.541Z,988.83
2023-03-13T11:49:01.528Z,988.74
2023-03-13T11:50:01.534Z,988.72
2023-03-13T11:51:01.598Z,988.65
2023-03-13T11:52:01.486Z,988.66
2023-03-13T11:53:01.494Z,988.62
2023-03-13T11:54:02.163Z,988.61
2023-03-13T11:55:01.461Z,988.52
2023-03-13T11:56:01.452Z,988.61
2023-03-13T11:57:01.443Z,988.56
2023-03-13T11:58:01.415Z,988.51
2023-03-13T11:59:01.400Z,988.53
2023-03-13T12:00:01.383Z,988.51
2023-03-13T12:01:01.500Z,988.50
2023-03-13T12:02:01.382Z,988.37
2023-03-13T12:03:01.352Z,988.39
2023-03-13T12:04:01.341Z,988.40
2023-03-13T12:05:01.393Z,988.35
2023-03-13T12:06:01.341Z,988.28
2023-03-13T12:07:03.602Z,988.27
2023-03-13T12:08:01.287Z,988.23
2023-03-13T12:09:01.274Z,988.26
2023-03-13T12:10:01.260Z,988.23
2023-03-13T12:11:01.268Z,988.16
2023-03-13T12:12:01.242Z,988.20
2023-03-13T12:13:01.221Z,988.19
2023-03-13T12:14:01.206Z,988.17
2023-03-13T12:15:01.211Z,988.17
2023-03-13T12:16:01.201Z,988.14
2023-03-13T12:17:01.169Z,988.12
2023-03-13T12:18:01.159Z,988.11
2023-03-13T12:19:01.168Z,988.13
2023-03-13T12:20:01.141Z,988.10
2023-03-13T12:21:01.131Z,988.06
2023-03-13T12:22:01.182Z,988.02
2023-03-13T12:23:01.088Z,988.01
2023-03-13T12:24:01.199Z,988.09
2023-03-13T12:25:01.188Z,987.97
2023-03-13T12:26:01.075Z,988.01
2023-03-13T12:27:01.039Z,987.96
2023-03-13T12:28:01.098Z,987.89